createdAt,value
2019-02-21T00:00:10.242Z,40.70
2019-02-21T00:02:39.725Z,41.90
2019-02-21T00:05:09.592Z,40.20
2019-02-21T00:07:39.069Z,31.55
2019-02-21T00:10:08.809Z,34.25
2019-02-21T00:12:38.258Z,31.77
2019-02-21T00:15:08.424Z,37.42
2019-02-21T00:17:38.452Z,36.20
2019-02-21T00:20:08.327Z,36.98
2019-02-21T00:22:37.790Z,36.83
2019-02-21T00:25:07.219Z,49.33
2019-02-21T00:27:36.668Z,32.28
2019-02-21T00:30:06.240Z,30.43
2019-02-21T00:32:35.727Z,35.05
2019-02-21T00:35:05.234Z,34.45
2019-02-21T00:37:34.663Z,38.45
2019-02-21T00:40:04.185Z,42.65
2019-02-21T00:42:33.655Z,43.00
2019-02-21T00:45:03.105Z,43.73
2019-02-21T00:47:32.995Z,44.98
2019-02-21T00:50:02.464Z,46.75
2019-02-21T00:52:32.023Z,40.45
2019-02-21T00:55:01.512Z,39.23
2019-02-21T00:57:31.000Z,40.08
2019-02-21T01:00:00.456Z,43.50
2019-02-21T01:02:29.928Z,43.10
2019-02-21T01:04:59.414Z,38.23
2019-02-21T01:07:28.905Z,45.50
2019-02-21T01:09:58.368Z,41.18
2019-02-21T01:12:27.823Z,45.85
2019-02-21T01:14:57.302Z,45.00
2019-02-21T01:17:26.744Z,36.45
2019-02-21T01:19:56.297Z,31.20
2019-02-21T01:22:25.752Z,35.23
2019-02-21T01:24:55.298Z,33.42
2019-02-21T01:27:24.813Z,37.63
2019-02-21T01:29:54.273Z,31.10
2019-02-21T01:32:23.749Z,33.58
2019-02-21T01:34:53.200Z,35.68
2019-02-21T01:37:22.679Z,30.50
2019-02-21T01:39:52.940Z,38.73
2019-02-21T01:42:22.379Z,33.28
2019-02-21T01:44:52.119Z,25.77
2019-02-21T01:47:21.617Z,35.45
2019-02-21T01:49:51.120Z,33.10
2019-02-21T01:52:20.579Z,24.87
2019-02-21T01:54:50.038Z,27.20
2019-02-21T01:57:19.487Z,25.62
2019-02-21T01:59:49.632Z,26.37
2019-02-21T02:02:19.086Z,35.92
2019-02-21T02:04:48.553Z,32.80
2019-02-21T02:07:17.974Z,31.05
2019-02-21T02:09:47.670Z,30.82
2019-02-21T02:12:17.129Z,43.02
2019-02-21T02:14:47.026Z,39.80
2019-02-21T02:17:16.496Z,46.55
2019-02-21T02:19:45.940Z,40.20
2019-02-21T02:22:15.441Z,35.43
2019-02-21T02:24:44.930Z,31.17
2019-02-21T02:27:14.422Z,29.05
2019-02-21T02:29:43.857Z,37.13
2019-02-21T02:32:13.305Z,30.43
2019-02-21T02:34:42.905Z,49.27
2019-02-21T02:37:12.521Z,68.75
2019-02-21T02:39:41.974Z,75.90
2019-02-21T02:42:11.437Z,69.35
2019-02-21T02:44:40.937Z,71.87
2019-02-21T02:47:10.464Z,75.70
2019-02-21T02:49:40.202Z,56.15
2019-02-21T02:52:09.639Z,45.15
2019-02-21T02:54:39.142Z,46.28
2019-02-21T02:57:08.644Z,42.53
2019-02-21T02:59:41.147Z,35.17
2019-02-21T03:02:09.251Z,35.50
2019-02-21T03:04:38.786Z,34.73
2019-02-21T03:07:08.403Z,35.17
2019-02-21T03:09:37.890Z,34.35
2019-02-21T03:12:07.341Z,31.57
2019-02-21T03:14:37.188Z,29.07
2019-02-21T03:17:06.668Z,29.92
2019-02-21T03:19:36.083Z,31.10
2019-02-21T03:22:05.541Z,33.58
2019-02-21T03:24:35.374Z,35.08
2019-02-21T03:27:04.837Z,29.18
2019-02-21T03:29:34.537Z,38.65
2019-02-21T03:32:04.366Z,42.33
2019-02-21T03:34:33.817Z,63.30
2019-02-21T03:37:03.327Z,45.70
2019-02-21T03:39:32.773Z,46.63
2019-02-21T03:42:02.217Z,43.85
2019-02-21T03:44:31.710Z,43.35
2019-02-21T03:47:01.167Z,42.08
2019-02-21T03:49:30.643Z,41.60
2019-02-21T03:52:00.112Z,44.40
2019-02-21T03:54:29.589Z,43.17
2019-02-21T03:56:59.153Z,45.95
2019-02-21T03:59:28.658Z,45.52
2019-02-21T04:02:05.456Z,41.98
2019-02-21T04:04:29.466Z,44.45
2019-02-21T04:06:59.826Z,39.08
2019-02-21T04:09:29.284Z,36.90
2019-02-21T04:11:58.738Z,33.67
2019-02-21T04:14:28.512Z,43.87
2019-02-21T04:16:58.010Z,39.33
2019-02-21T04:19:28.542Z,36.10
2019-02-21T04:21:57.996Z,43.92
2019-02-21T04:24:27.480Z,37.42
2019-02-21T04:26:56.935Z,39.65
2019-02-21T04:29:26.359Z,36.33
2019-02-21T04:31:55.903Z,48.58
2019-02-21T04:34:25.667Z,42.13
2019-02-21T04:36:55.120Z,50.60
2019-02-21T04:39:24.618Z,46.65
2019-02-21T04:41:54.062Z,50.48
2019-02-21T04:44:23.543Z,51.37
2019-02-21T04:46:53.052Z,50.45
2019-02-21T04:49:22.512Z,48.02
2019-02-21T04:51:51.944Z,49.05
2019-02-21T04:54:21.438Z,44.90
2019-02-21T04:56:50.883Z,44.23
2019-02-21T04:59:21.040Z,44.30
2019-02-21T05:01:50.493Z,39.50
2019-02-21T05:04:19.953Z,39.35
2019-02-21T05:06:49.417Z,43.55
2019-02-21T05:09:18.852Z,38.85
2019-02-21T05:11:48.353Z,47.35
2019-02-21T05:14:17.870Z,46.13
2019-02-21T05:16:47.370Z,35.08
2019-02-21T05:19:16.848Z,57.27
2019-02-21T05:21:46.436Z,44.50
2019-02-21T05:24:15.920Z,49.93
2019-02-21T05:26:52.616Z,52.65
2019-02-21T05:29:22.081Z,44.88
2019-02-21T05:32:16.446Z,42.98
2019-02-21T05:34:51.433Z,39.67
2019-02-21T05:37:42.997Z,43.10
2019-02-21T05:40:42.093Z,45.85
2019-02-21T05:43:39.508Z,46.63
2019-02-21T05:46:33.815Z,45.78
2019-02-21T05:49:11.450Z,42.03
2019-02-21T05:51:51.077Z,45.65
2019-02-21T05:54:31.791Z,57.48
2019-02-21T05:57:28.953Z,40.43
2019-02-21T06:00:23.747Z,45.52
2019-02-21T06:03:09.265Z,47.85
2019-02-21T06:06:03.663Z,39.65
2019-02-21T06:08:48.166Z,39.40
2019-02-21T06:11:51.623Z,49.48
2019-02-21T06:14:39.933Z,48.95
2019-02-21T06:17:25.732Z,61.13
2019-02-21T06:20:26.191Z,59.48
2019-02-21T06:23:14.616Z,56.53
2019-02-21T06:26:03.006Z,49.08
2019-02-21T06:28:39.861Z,47.85
2019-02-21T06:31:15.759Z,45.63
2019-02-21T06:33:45.234Z,45.65
2019-02-21T06:36:14.709Z,47.33
2019-02-21T06:38:44.159Z,44.83
2019-02-21T06:41:13.602Z,57.85
2019-02-21T06:43:43.024Z,47.15
2019-02-21T06:46:13.770Z,51.65
2019-02-21T06:48:43.457Z,44.65
2019-02-21T06:51:12.909Z,44.67
2019-02-21T06:53:42.335Z,49.75
2019-02-21T06:56:11.811Z,47.45
2019-02-21T06:58:42.168Z,48.68
2019-02-21T07:01:11.798Z,50.58
2019-02-21T07:03:41.305Z,48.33
2019-02-21T07:06:10.717Z,53.10
2019-02-21T07:08:40.296Z,54.95
2019-02-21T07:11:09.799Z,51.05
2019-02-21T07:13:39.223Z,45.17
2019-02-21T07:16:08.656Z,47.70
2019-02-21T07:18:40.620Z,50.83
2019-02-21T07:21:09.185Z,53.52
2019-02-21T07:23:43.482Z,48.48
2019-02-21T07:26:15.465Z,54.98
2019-02-21T07:28:44.883Z,58.38
2019-02-21T07:31:14.318Z,47.35
2019-02-21T07:33:43.746Z,45.85
2019-02-21T07:36:13.173Z,46.77
2019-02-21T07:38:42.641Z,41.05
2019-02-21T07:41:12.116Z,52.15
2019-02-21T07:43:41.590Z,44.38
2019-02-21T07:46:11.013Z,49.95
2019-02-21T07:48:40.445Z,44.77
2019-02-21T07:51:09.910Z,50.78
2019-02-21T07:53:39.668Z,49.15
2019-02-21T07:56:09.099Z,39.90
2019-02-21T07:58:39.660Z,42.15
2019-02-21T08:01:09.163Z,38.90
2019-02-21T08:03:44.287Z,40.85
2019-02-21T08:06:09.647Z,37.93
2019-02-21T08:08:39.069Z,42.98
2019-02-21T08:11:09.045Z,41.08
2019-02-21T08:13:38.466Z,44.67
2019-02-21T08:16:07.894Z,38.38
2019-02-21T08:18:37.630Z,35.95
2019-02-21T08:21:07.108Z,41.50
2019-02-21T08:23:37.090Z,42.90
2019-02-21T08:26:06.870Z,47.05
2019-02-21T08:28:36.287Z,45.65
2019-02-21T08:31:07.203Z,45.12
2019-02-21T08:33:57.963Z,41.80
2019-02-21T08:36:18.647Z,40.28
2019-02-21T08:38:48.068Z,42.75
2019-02-21T08:41:17.803Z,49.42
2019-02-21T08:43:47.218Z,43.80
2019-02-21T08:46:18.307Z,45.67
2019-02-21T08:48:48.095Z,56.37
2019-02-21T08:51:18.437Z,51.10
2019-02-21T08:53:48.020Z,51.18
2019-02-21T08:56:17.543Z,49.33
2019-02-21T08:58:46.978Z,47.23
2019-02-21T09:01:16.461Z,41.80
2019-02-21T09:03:45.898Z,44.98
2019-02-21T09:06:15.348Z,41.05
2019-02-21T09:08:44.787Z,41.45
2019-02-21T09:11:14.258Z,41.00
2019-02-21T09:13:43.697Z,44.33
2019-02-21T09:16:13.134Z,39.83
2019-02-21T09:18:43.030Z,42.95
2019-02-21T09:21:53.434Z,45.30
2019-02-21T09:28:03.785Z,42.00
2019-02-21T09:34:02.009Z,41.92
2019-02-21T09:36:31.783Z,40.85
2019-02-21T09:39:01.253Z,41.40
2019-02-21T09:41:30.690Z,47.62
2019-02-21T09:44:04.188Z,35.10
2019-02-21T09:46:33.617Z,35.30
2019-02-21T09:49:03.154Z,39.53
2019-02-21T09:51:32.613Z,37.78
2019-02-21T09:54:02.133Z,42.05
2019-02-21T09:56:31.590Z,39.92
2019-02-21T09:59:01.486Z,39.20
2019-02-21T10:01:30.911Z,43.35
2019-02-21T10:04:00.335Z,40.90
2019-02-21T10:06:29.783Z,40.90
2019-02-21T10:08:59.487Z,46.30
2019-02-21T10:11:28.965Z,38.70
2019-02-21T10:13:58.375Z,47.15
2019-02-21T10:16:29.443Z,42.55
2019-02-21T10:18:58.882Z,48.48
2019-02-21T10:21:28.369Z,54.85
2019-02-21T10:23:57.852Z,41.23
2019-02-21T10:26:27.688Z,46.90
2019-02-21T10:28:57.126Z,42.85
2019-02-21T10:31:26.587Z,46.15
2019-02-21T10:33:56.015Z,45.03
2019-02-21T10:36:25.441Z,46.15
2019-02-21T10:38:54.875Z,45.78
2019-02-21T10:41:24.286Z,42.55
2019-02-21T10:43:53.785Z,46.88
2019-02-21T10:46:23.212Z,42.03
2019-02-21T10:48:52.965Z,40.83
2019-02-21T10:51:22.377Z,48.98
2019-02-21T10:53:52.185Z,40.75
2019-02-21T10:56:21.622Z,47.90
2019-02-21T10:58:51.049Z,43.20
2019-02-21T11:01:20.455Z,42.67
2019-02-21T11:03:50.211Z,34.63
2019-02-21T11:06:19.690Z,41.95
2019-02-21T11:08:49.107Z,41.23
2019-02-21T11:11:18.518Z,45.08
2019-02-21T11:13:47.966Z,39.98
2019-02-21T11:16:17.620Z,42.35
2019-02-21T11:19:06.318Z,45.65
2019-02-21T11:21:35.797Z,38.30
2019-02-21T11:24:05.326Z,38.38
2019-02-21T11:26:35.224Z,39.70
2019-02-21T11:29:04.753Z,38.80
2019-02-21T11:31:34.238Z,33.85
2019-02-21T11:34:03.701Z,32.05
2019-02-21T11:36:33.477Z,42.38
2019-02-21T11:39:03.996Z,39.88
2019-02-21T11:41:33.517Z,42.30
2019-02-21T11:44:02.997Z,41.75
2019-02-21T11:46:32.823Z,40.12
2019-02-21T11:49:02.692Z,39.20
2019-02-21T11:51:32.134Z,38.65
2019-02-21T11:54:01.595Z,33.50
2019-02-21T11:56:31.045Z,28.00
2019-02-21T11:59:00.504Z,25.80
2019-02-21T12:01:29.944Z,17.80
2019-02-21T12:03:59.765Z,14.00
2019-02-21T12:06:29.225Z,11.40
2019-02-21T12:08:58.721Z,12.40
2019-02-21T12:11:28.501Z,15.70
2019-02-21T12:13:57.975Z,16.20
2019-02-21T12:16:27.994Z,18.37
2019-02-21T12:18:57.702Z,17.60
2019-02-21T12:21:27.255Z,19.80
2019-02-21T12:23:56.754Z,22.75
2019-02-21T12:26:29.788Z,23.35
2019-02-21T12:28:59.275Z,18.00
2019-02-21T12:31:28.770Z,21.77
2019-02-21T12:33:58.713Z,24.10
2019-02-21T12:36:28.360Z,20.37
2019-02-21T12:38:58.129Z,27.45
2019-02-21T12:41:27.681Z,22.70
2019-02-21T12:43:57.191Z,30.90
2019-02-21T12:46:26.797Z,25.10
2019-02-21T12:48:56.432Z,31.07
2019-02-21T12:51:26.058Z,26.25
2019-02-21T12:53:55.893Z,27.00
2019-02-21T12:56:25.391Z,33.45
2019-02-21T12:58:54.945Z,34.30
2019-02-21T13:01:24.546Z,35.05
2019-02-21T13:03:54.097Z,27.87
2019-02-21T13:06:23.558Z,28.32
2019-02-21T13:08:53.090Z,29.60
2019-02-21T13:11:22.589Z,32.42
2019-02-21T13:13:52.093Z,21.07
2019-02-21T13:16:21.586Z,23.60
2019-02-21T13:18:51.074Z,19.45
2019-02-21T13:21:20.574Z,21.50
2019-02-21T13:23:50.201Z,34.83
2019-02-21T13:26:20.119Z,58.28
2019-02-21T13:28:55.503Z,35.70
2019-02-21T13:31:24.980Z,29.90
2019-02-21T13:33:54.546Z,37.25
2019-02-21T13:36:23.978Z,34.65
2019-02-21T13:38:53.416Z,30.32
2019-02-21T13:41:22.922Z,38.65
2019-02-21T13:43:52.419Z,38.90
2019-02-21T13:46:22.216Z,35.03
2019-02-21T13:48:51.675Z,36.75
2019-02-21T13:51:21.249Z,38.83
2019-02-21T13:53:52.296Z,39.63
2019-02-21T13:56:22.075Z,55.43
2019-02-21T13:58:51.577Z,39.83
2019-02-21T14:01:21.335Z,41.42
2019-02-21T14:03:50.835Z,40.03
2019-02-21T14:06:20.293Z,40.03
2019-02-21T14:08:49.774Z,49.13
2019-02-21T14:11:19.602Z,40.78
2019-02-21T14:16:46.676Z,44.63
2019-02-21T14:19:12.232Z,39.38
2019-02-21T14:21:43.604Z,40.03
2019-02-21T14:24:12.818Z,37.40
2019-02-21T14:26:42.290Z,41.08
2019-02-21T14:29:12.839Z,39.35
2019-02-21T14:31:43.362Z,39.53
2019-02-21T14:34:13.182Z,42.95
2019-02-21T14:36:42.696Z,42.78
2019-02-21T14:39:12.168Z,46.05
2019-02-21T14:41:43.820Z,43.28
2019-02-21T14:44:13.080Z,34.53
2019-02-21T14:46:42.564Z,42.13
2019-02-21T14:49:12.012Z,43.70
2019-02-21T14:51:41.653Z,38.33
2019-02-21T14:54:11.087Z,37.33
2019-02-21T14:56:40.900Z,40.23
2019-02-21T14:59:10.427Z,42.85
2019-02-21T15:01:39.894Z,42.78
2019-02-21T15:04:09.437Z,43.33
2019-02-21T15:06:41.042Z,39.13
2019-02-21T15:09:10.658Z,44.38
2019-02-21T15:11:40.250Z,37.55
2019-02-21T15:14:09.683Z,43.78
2019-02-21T15:16:39.131Z,40.28
2019-02-21T15:19:09.451Z,33.28
2019-02-21T15:21:39.224Z,35.90
2019-02-21T15:24:08.819Z,31.12
2019-02-21T15:26:38.237Z,38.92
2019-02-21T15:29:07.712Z,38.02
2019-02-21T15:31:37.220Z,37.60
2019-02-21T15:34:06.767Z,33.25
2019-02-21T15:36:38.562Z,30.68
2019-02-21T15:39:08.992Z,35.95
2019-02-21T15:41:38.808Z,29.52
2019-02-21T15:44:08.287Z,35.30
2019-02-21T15:46:37.909Z,32.53
2019-02-21T15:49:07.446Z,35.33
2019-02-21T15:51:37.152Z,34.40
2019-02-21T15:54:06.764Z,31.30
2019-02-21T15:56:36.558Z,32.70
2019-02-21T15:59:06.038Z,32.85
2019-02-21T16:01:46.964Z,33.58
2019-02-21T16:04:07.043Z,33.08
2019-02-21T16:06:38.073Z,34.08
2019-02-21T16:09:16.401Z,33.55
2019-02-21T16:11:40.133Z,36.55
2019-02-21T16:14:09.617Z,31.85
2019-02-21T16:16:39.128Z,41.05
2019-02-21T16:19:08.663Z,38.05
2019-02-21T16:21:38.181Z,37.58
2019-02-21T16:24:07.673Z,36.70
2019-02-21T16:26:37.278Z,38.10
2019-02-21T16:29:06.834Z,40.98
2019-02-21T16:31:36.289Z,41.65
2019-02-21T16:34:05.760Z,40.55
2019-02-21T16:36:35.224Z,44.42
2019-02-21T16:39:05.562Z,43.85
2019-02-21T16:41:36.590Z,41.60
2019-02-21T16:44:07.117Z,47.85
2019-02-21T16:46:38.801Z,47.23
2019-02-21T16:49:08.562Z,42.50
2019-02-21T16:51:38.057Z,48.10
2019-02-21T16:54:07.515Z,47.45
2019-02-21T16:56:37.362Z,51.40
2019-02-21T16:59:06.959Z,39.67
2019-02-21T17:01:36.434Z,37.78
2019-02-21T17:04:06.026Z,37.10
2019-02-21T17:06:35.629Z,39.73
2019-02-21T17:09:07.271Z,47.25
2019-02-21T17:11:36.969Z,39.85
2019-02-21T17:14:06.458Z,49.60
2019-02-21T17:16:35.978Z,51.25
2019-02-21T17:19:05.449Z,53.08
2019-02-21T17:21:34.920Z,52.83
2019-02-21T17:24:04.343Z,55.92
2019-02-21T17:26:55.785Z,52.53
2019-02-21T17:29:25.887Z,54.58
2019-02-21T17:31:55.693Z,56.37
2019-02-21T17:34:26.909Z,51.63
2019-02-21T17:36:56.340Z,53.52
2019-02-21T17:39:25.839Z,57.08
2019-02-21T17:41:55.379Z,49.15
2019-02-21T17:44:24.867Z,50.60
2019-02-21T17:46:54.321Z,51.48
2019-02-21T17:49:23.805Z,51.00
2019-02-21T17:51:53.950Z,55.08
2019-02-21T17:54:25.147Z,55.28
2019-02-21T17:56:54.636Z,49.98
2019-02-21T17:59:24.094Z,51.35
2019-02-21T18:01:53.537Z,53.78
2019-02-21T18:04:22.982Z,51.83
2019-02-21T18:06:52.453Z,52.13
2019-02-21T18:09:21.912Z,47.62
2019-02-21T18:11:51.413Z,49.77
2019-02-21T18:14:20.872Z,47.38
2019-02-21T18:30:43.723Z,46.60
2019-02-21T18:33:13.240Z,46.53
2019-02-21T18:35:43.182Z,47.20
2019-02-21T18:38:12.695Z,52.10
2019-02-21T18:40:42.491Z,49.63
2019-02-21T18:43:11.959Z,47.40
2019-02-21T18:45:41.559Z,42.03
2019-02-21T18:48:11.059Z,42.73
2019-02-21T18:50:40.843Z,56.45
2019-02-21T18:53:10.646Z,48.68
2019-02-21T18:55:40.119Z,47.65
2019-02-21T18:58:09.565Z,45.17
2019-02-21T19:00:39.057Z,47.38
2019-02-21T19:03:08.525Z,48.42
2019-02-21T19:05:38.036Z,41.90
2019-02-21T19:08:07.666Z,47.43
2019-02-21T19:11:28.036Z,43.38
2019-02-21T19:13:57.857Z,45.10
2019-02-21T19:16:28.187Z,42.88
2019-02-21T19:18:57.645Z,43.35
2019-02-21T19:21:27.424Z,50.17
2019-02-21T19:23:57.772Z,53.45
2019-02-21T19:26:27.315Z,48.10
2019-02-21T19:28:57.384Z,48.78
2019-02-21T19:31:26.836Z,45.40
2019-02-21T19:33:56.511Z,44.03
2019-02-21T19:36:26.427Z,49.20
2019-02-21T19:38:55.961Z,47.53
2019-02-21T19:41:25.423Z,43.15
2019-02-21T19:43:54.938Z,51.08
2019-02-21T19:46:24.819Z,52.40
2019-02-21T19:48:54.679Z,46.08
2019-02-21T19:51:25.313Z,52.40
2019-02-21T19:53:54.844Z,47.27
2019-02-21T19:56:24.300Z,47.93
2019-02-21T19:58:53.745Z,52.13
2019-02-21T20:01:24.056Z,52.17
2019-02-21T20:03:53.526Z,51.50
2019-02-21T20:06:23.044Z,64.07
2019-02-21T20:08:52.582Z,49.33
2019-02-21T20:11:22.287Z,54.80
2019-02-21T20:13:51.763Z,59.05
2019-02-21T20:16:21.542Z,51.68
2019-02-21T20:18:51.055Z,58.83
2019-02-21T20:21:20.812Z,56.55
2019-02-21T20:23:50.436Z,50.83
2019-02-21T20:26:19.982Z,54.08
2019-02-21T20:28:49.468Z,60.40
2019-02-21T20:31:18.923Z,76.40
2019-02-21T20:33:48.394Z,58.33
2019-02-21T20:36:17.888Z,56.90
2019-02-21T20:38:48.154Z,60.55
2019-02-21T20:41:17.694Z,62.15
2019-02-21T20:43:47.199Z,55.38
2019-02-21T20:46:17.304Z,60.98
2019-02-21T20:48:46.804Z,62.98
2019-02-21T20:51:16.264Z,63.95
2019-02-21T20:53:46.253Z,64.53
2019-02-21T20:56:15.716Z,66.95
2019-02-21T20:58:45.613Z,63.10
2019-02-21T21:01:15.769Z,68.42
2019-02-21T21:03:45.271Z,69.40
2019-02-21T21:06:14.796Z,71.97
2019-02-21T21:08:46.523Z,70.03
2019-02-21T21:11:16.234Z,69.47
2019-02-21T21:13:45.742Z,70.65
2019-02-21T21:16:15.643Z,64.42
2019-02-21T21:18:45.623Z,66.50
2019-02-21T21:21:15.591Z,66.62
2019-02-21T21:23:45.420Z,65.90
2019-02-21T21:26:14.941Z,61.80
2019-02-21T21:28:44.426Z,68.30
2019-02-21T21:31:15.344Z,63.40
2019-02-21T21:33:45.412Z,58.40
2019-02-21T21:36:14.863Z,62.83
2019-02-21T21:38:53.628Z,65.05
2019-02-21T21:41:15.721Z,60.73
2019-02-21T21:43:45.995Z,64.55
2019-02-21T21:46:15.525Z,59.58
2019-02-21T21:48:45.522Z,56.98
2019-02-21T21:51:15.008Z,68.15
2019-02-21T21:53:44.478Z,68.25
2019-02-21T21:56:13.958Z,72.47
2019-02-21T21:58:44.028Z,73.80
2019-02-21T22:01:13.493Z,67.70
2019-02-21T22:03:42.995Z,68.78
2019-02-21T22:06:12.481Z,67.03
2019-02-21T22:08:42.029Z,63.50
2019-02-21T22:11:11.568Z,68.30
2019-02-21T22:13:41.492Z,62.70
2019-02-21T22:16:10.944Z,59.05
2019-02-21T22:18:40.431Z,57.50
2019-02-21T22:21:09.904Z,58.48
2019-02-21T22:23:39.390Z,54.55
2019-02-21T22:26:08.871Z,53.98
2019-02-21T22:28:38.437Z,52.17
2019-02-21T22:31:07.924Z,53.10
2019-02-21T22:33:37.427Z,43.80
2019-02-21T22:36:06.959Z,45.80
2019-02-21T22:38:36.476Z,42.33
2019-02-21T22:41:05.935Z,40.17
2019-02-21T22:43:35.813Z,42.75
2019-02-21T22:46:05.306Z,40.50
2019-02-21T22:48:34.924Z,40.70
2019-02-21T22:51:04.425Z,39.70
2019-02-21T22:53:33.875Z,34.13
2019-02-21T22:56:03.348Z,33.88
2019-02-21T22:58:32.803Z,31.00
2019-02-21T23:01:34.211Z,32.78
2019-02-21T23:04:12.837Z,29.80
2019-02-21T23:07:15.497Z,27.17
2019-02-21T23:09:45.417Z,28.25
2019-02-21T23:12:14.862Z,34.25
2019-02-21T23:14:44.725Z,29.37
2019-02-21T23:17:14.198Z,24.90
2019-02-21T23:19:43.848Z,24.12
2019-02-21T23:22:13.338Z,22.90
2019-02-21T23:24:42.864Z,21.97
2019-02-21T23:27:12.367Z,23.90
2019-02-21T23:29:41.829Z,21.70
2019-02-21T23:32:11.393Z,23.38
2019-02-21T23:34:43.814Z,21.07
2019-02-21T23:37:13.306Z,21.95
2019-02-21T23:39:42.923Z,20.68
2019-02-21T23:42:12.531Z,20.80
2019-02-21T23:44:42.037Z,19.07
2019-02-21T23:47:11.524Z,19.95
2019-02-21T23:49:41.121Z,22.77
2019-02-21T23:52:10.921Z,19.17
2019-02-21T23:54:40.742Z,17.77
2019-02-21T23:57:10.203Z,18.15
2019-02-21T23:59:39.724Z,20.30
